createdAt,value
2018-01-31T01:52:20.375Z,99.99
2018-01-31T01:52:21.476Z,99.99
2018-01-31T01:53:20.823Z,99.99
2018-01-31T01:54:20.817Z,99.99
2018-01-31T01:55:20.810Z,99.99
2018-01-31T01:56:20.803Z,99.99
2018-01-31T01:57:20.798Z,99.99
2018-01-31T01:58:20.792Z,99.99
2018-01-31T01:59:20.786Z,99.99
2018-01-31T02:00:20.779Z,99.99
2018-01-31T02:01:20.775Z,99.99
2018-01-31T02:02:20.766Z,99.99
2018-01-31T02:03:20.759Z,99.99
2018-01-31T02:04:20.754Z,99.99
2018-01-31T02:05:20.746Z,99.99
2018-01-31T02:06:20.741Z,99.99
2018-01-31T02:07:20.735Z,99.99
2018-01-31T02:08:20.730Z,99.99
2018-01-31T02:09:20.722Z,99.99
2018-01-31T02:10:20.716Z,99.99
2018-01-31T02:11:20.711Z,99.99
2018-01-31T02:12:20.705Z,99.99
2018-01-31T02:13:20.697Z,99.99
2018-01-31T02:14:20.692Z,99.99
2018-01-31T02:15:20.685Z,99.99
2018-01-31T02:16:20.681Z,99.99
2018-01-31T02:17:20.674Z,99.99
2018-01-31T02:18:20.666Z,99.99
2018-01-31T02:19:20.663Z,99.99
2018-01-31T02:20:20.656Z,99.99
2018-01-31T02:21:20.650Z,99.99
2018-01-31T02:22:20.644Z,99.99
2018-01-31T02:23:20.638Z,99.99
2018-01-31T02:24:20.633Z,99.99
2018-01-31T02:25:20.625Z,99.99
2018-01-31T02:26:20.619Z,99.99
2018-01-31T02:27:20.613Z,99.99
2018-01-31T02:28:20.608Z,99.99
2018-01-31T02:29:20.601Z,99.99
2018-01-31T02:30:20.595Z,99.99
2018-01-31T02:31:20.590Z,99.99
2018-01-31T02:32:20.585Z,99.99
2018-01-31T02:33:20.576Z,99.99
2018-01-31T02:34:20.571Z,99.99
2018-01-31T02:35:20.565Z,99.99
2018-01-31T02:36:20.564Z,99.99
2018-01-31T02:37:20.552Z,99.99
2018-01-31T02:38:20.547Z,99.99
2018-01-31T02:39:20.544Z,99.99
2018-01-31T02:40:20.536Z,99.99
2018-01-31T02:41:20.531Z,99.99
2018-01-31T02:42:20.525Z,99.99
2018-01-31T02:43:20.519Z,99.99
2018-01-31T02:44:20.514Z,99.99
2018-01-31T02:45:20.509Z,99.99
2018-01-31T02:46:20.504Z,99.99
2018-01-31T02:47:20.552Z,99.99
2018-01-31T02:48:20.489Z,99.99
2018-01-31T02:49:20.484Z,99.99
2018-01-31T02:50:20.482Z,99.99
2018-01-31T02:51:20.473Z,99.99
2018-01-31T02:52:20.465Z,99.99
2018-01-31T02:53:20.460Z,99.99
2018-01-31T02:54:20.456Z,99.99
2018-01-31T02:55:20.449Z,99.99
2018-01-31T02:56:20.444Z,99.99
2018-01-31T02:57:20.438Z,99.99
2018-01-31T02:58:20.432Z,99.99
2018-01-31T02:59:20.427Z,99.99
2018-01-31T03:00:20.422Z,99.99
2018-01-31T03:01:20.415Z,99.99
2018-01-31T03:02:20.410Z,99.99
2018-01-31T03:03:20.404Z,99.99
2018-01-31T03:04:20.398Z,99.99
2018-01-31T03:05:20.392Z,99.99
2018-01-31T03:06:20.388Z,99.99
2018-01-31T03:07:20.381Z,99.99
2018-01-31T03:08:20.375Z,99.99
2018-01-31T03:09:20.369Z,99.99
2018-01-31T03:10:20.364Z,99.99
2018-01-31T03:11:20.358Z,99.99
2018-01-31T03:12:20.352Z,99.99
2018-01-31T03:13:20.348Z,99.99
2018-01-31T03:14:20.343Z,99.99
2018-01-31T03:15:20.337Z,99.99
2018-01-31T03:16:20.330Z,99.99
2018-01-31T03:17:20.325Z,99.99
2018-01-31T03:18:20.320Z,99.99
2018-01-31T03:19:20.313Z,99.99
2018-01-31T03:20:20.308Z,99.99
2018-01-31T03:21:20.304Z,99.99
2018-01-31T03:22:20.296Z,99.99
2018-01-31T03:23:20.292Z,99.99
2018-01-31T03:24:20.286Z,99.99
2018-01-31T03:25:20.281Z,99.99
2018-01-31T03:26:20.275Z,99.99
2018-01-31T03:27:20.269Z,99.99
2018-01-31T03:28:20.265Z,99.99
2018-01-31T03:29:20.256Z,99.99
2018-01-31T03:30:20.253Z,99.99
2018-01-31T03:31:20.248Z,99.99
2018-01-31T03:32:20.243Z,99.99
2018-01-31T03:33:20.236Z,99.99
2018-01-31T03:34:20.233Z,99.99
2018-01-31T03:35:20.225Z,99.99
2018-01-31T03:36:20.220Z,99.99
2018-01-31T03:37:20.214Z,99.99
2018-01-31T03:38:20.213Z,99.99
2018-01-31T03:39:20.204Z,99.99
2018-01-31T03:40:20.203Z,99.99
2018-01-31T03:41:20.194Z,99.99
2018-01-31T03:42:20.187Z,99.99
2018-01-31T03:43:20.182Z,99.99
2018-01-31T03:44:20.178Z,99.99
2018-01-31T03:45:20.172Z,99.99
2018-01-31T03:46:20.166Z,99.99
2018-01-31T03:47:20.161Z,99.99
2018-01-31T03:48:20.157Z,99.99
2018-01-31T03:49:20.150Z,99.99
2018-01-31T03:50:20.146Z,99.99
2018-01-31T03:51:20.139Z,99.99
2018-01-31T03:52:20.135Z,99.99
2018-01-31T03:53:20.130Z,99.99
2018-01-31T03:54:20.123Z,99.99
2018-01-31T03:55:20.122Z,99.99
2018-01-31T03:56:20.115Z,99.99
2018-01-31T03:57:20.109Z,99.83
2018-01-31T03:58:20.104Z,99.99
2018-01-31T03:59:20.102Z,99.69
2018-01-31T04:00:20.093Z,99.78
2018-01-31T04:01:20.088Z,99.99
2018-01-31T04:02:20.083Z,99.99
2018-01-31T04:03:20.077Z,99.59
2018-01-31T04:04:20.074Z,99.88
2018-01-31T04:05:20.067Z,99.88
2018-01-31T04:06:20.062Z,99.21
2018-01-31T04:07:20.057Z,99.40
2018-01-31T04:08:20.052Z,99.30
2018-01-31T04:09:20.046Z,99.59
2018-01-31T04:10:20.042Z,99.78
2018-01-31T04:11:20.038Z,99.88
2018-01-31T04:12:20.032Z,99.78
2018-01-31T04:13:20.026Z,99.59
2018-01-31T04:14:20.022Z,99.59
2018-01-31T04:15:20.018Z,99.02
2018-01-31T04:16:20.013Z,98.93
2018-01-31T04:17:20.006Z,99.21
2018-01-31T04:18:20.001Z,98.74
2018-01-31T04:19:19.997Z,98.93
2018-01-31T04:20:19.993Z,99.30
2018-01-31T04:21:19.986Z,99.21
2018-01-31T04:22:19.981Z,99.21
2018-01-31T04:23:19.977Z,99.16
2018-01-31T04:24:19.973Z,99.11
2018-01-31T04:25:19.966Z,99.45
2018-01-31T04:26:19.962Z,99.64
2018-01-31T04:27:19.958Z,99.55
2018-01-31T04:28:19.999Z,99.16
2018-01-31T04:29:19.947Z,99.16
2018-01-31T04:30:19.942Z,99.45
2018-01-31T04:31:19.937Z,99.26
2018-01-31T04:32:19.933Z,99.36
2018-01-31T04:33:19.928Z,99.36
2018-01-31T04:34:19.923Z,99.26
2018-01-31T04:35:19.918Z,99.26
2018-01-31T04:36:19.917Z,99.26
2018-01-31T04:37:19.908Z,99.36
2018-01-31T04:38:19.912Z,99.55
2018-01-31T04:39:19.903Z,99.16
2018-01-31T04:40:19.894Z,99.16
2018-01-31T04:41:19.888Z,98.69
2018-01-31T04:42:19.885Z,99.64
2018-01-31T04:43:19.879Z,99.55
2018-01-31T04:44:19.876Z,98.69
2018-01-31T04:45:19.870Z,98.60
2018-01-31T04:46:19.866Z,98.88
2018-01-31T04:47:19.861Z,98.97
2018-01-31T04:48:19.859Z,98.79
2018-01-31T04:49:19.850Z,98.97
2018-01-31T04:50:19.846Z,98.79
2018-01-31T04:51:19.841Z,98.60
2018-01-31T04:52:19.841Z,98.69
2018-01-31T04:53:19.835Z,98.88
2018-01-31T04:54:19.828Z,98.69
2018-01-31T04:55:19.823Z,98.12
2018-01-31T04:56:19.818Z,98.31
2018-01-31T04:57:19.813Z,98.50
2018-01-31T04:58:19.808Z,98.31
2018-01-31T04:59:19.811Z,98.31
2018-01-31T05:00:19.800Z,98.31
2018-01-31T05:01:19.795Z,98.60
2018-01-31T05:02:19.790Z,98.60
2018-01-31T05:03:19.787Z,98.60
2018-01-31T05:04:19.781Z,98.50
2018-01-31T05:05:19.777Z,98.12
2018-01-31T05:06:19.771Z,98.03
2018-01-31T05:07:19.767Z,98.50
2018-01-31T05:08:19.764Z,98.31
2018-01-31T05:09:19.759Z,98.69
2018-01-31T05:10:19.753Z,98.31
2018-01-31T05:11:19.749Z,98.60
2018-01-31T05:12:19.744Z,98.41
2018-01-31T05:13:19.740Z,98.50
2018-01-31T05:14:19.735Z,98.79
2018-01-31T05:15:19.731Z,97.98
2018-01-31T05:16:19.726Z,97.98
2018-01-31T05:17:19.724Z,97.88
2018-01-31T05:18:19.717Z,97.79
2018-01-31T05:19:19.713Z,97.88
2018-01-31T05:20:19.708Z,97.69
2018-01-31T05:21:19.703Z,97.69
2018-01-31T05:22:19.700Z,97.60
2018-01-31T05:23:19.695Z,97.98
2018-01-31T05:24:19.691Z,98.08
2018-01-31T05:25:19.687Z,97.98
2018-01-31T05:26:19.683Z,97.69
2018-01-31T05:27:19.677Z,97.79
2018-01-31T05:28:19.673Z,97.41
2018-01-31T05:29:19.668Z,97.60
2018-01-31T05:30:19.665Z,97.60
2018-01-31T05:31:19.660Z,97.60
2018-01-31T05:32:19.656Z,97.31
2018-01-31T05:33:19.650Z,97.88
2018-01-31T05:34:19.646Z,97.50
2018-01-31T05:35:19.642Z,97.41
2018-01-31T05:36:19.638Z,97.03
2018-01-31T05:37:19.633Z,97.13
2018-01-31T05:38:19.628Z,97.13
2018-01-31T05:39:19.626Z,97.13
2018-01-31T05:40:19.620Z,97.22
2018-01-31T05:41:19.615Z,97.13
2018-01-31T05:42:19.613Z,97.13
2018-01-31T05:43:19.607Z,97.03
2018-01-31T05:44:19.603Z,96.84
2018-01-31T05:45:19.600Z,97.50
2018-01-31T05:46:19.596Z,96.84
2018-01-31T05:47:19.590Z,97.31
2018-01-31T05:48:19.586Z,96.55
2018-01-31T05:49:19.581Z,97.50
2018-01-31T05:50:19.578Z,97.60
2018-01-31T05:51:19.574Z,97.22
2018-01-31T05:52:19.570Z,97.03
2018-01-31T05:53:19.565Z,96.74
2018-01-31T05:54:19.560Z,96.94
2018-01-31T05:55:19.557Z,96.36
2018-01-31T05:56:19.552Z,96.65
2018-01-31T05:57:19.552Z,96.60
2018-01-31T05:58:19.543Z,96.98
2018-01-31T05:59:19.540Z,96.55
2018-01-31T06:00:19.538Z,96.84
2018-01-31T06:01:19.533Z,96.70
2018-01-31T06:02:19.527Z,96.98
2018-01-31T06:03:19.546Z,97.08
2018-01-31T06:04:19.519Z,96.89
2018-01-31T06:05:19.514Z,96.94
2018-01-31T06:06:19.512Z,96.84
2018-01-31T06:07:19.508Z,96.98
2018-01-31T06:08:19.503Z,96.74
2018-01-31T06:09:19.498Z,96.98
2018-01-31T06:10:19.494Z,96.79
2018-01-31T06:11:19.490Z,96.79
2018-01-31T06:12:19.487Z,96.89
2018-01-31T06:13:19.482Z,96.98
2018-01-31T06:14:19.478Z,97.08
2018-01-31T06:15:19.474Z,96.89
2018-01-31T06:16:19.470Z,97.08
2018-01-31T06:17:19.465Z,96.98
2018-01-31T06:18:19.463Z,96.79
2018-01-31T06:19:19.459Z,96.89
2018-01-31T06:20:19.456Z,96.98
2018-01-31T06:21:19.450Z,96.89
2018-01-31T06:22:19.445Z,96.98
2018-01-31T06:23:19.441Z,96.98
2018-01-31T06:24:19.439Z,96.60
2018-01-31T06:25:19.434Z,96.89
2018-01-31T06:26:19.430Z,96.60
2018-01-31T06:27:19.430Z,96.79
2018-01-31T06:28:19.423Z,96.41
2018-01-31T06:29:19.419Z,96.89
2018-01-31T06:30:19.415Z,96.89
2018-01-31T06:31:19.412Z,96.79
2018-01-31T06:32:19.408Z,96.41
2018-01-31T06:33:19.402Z,96.41
2018-01-31T06:34:19.399Z,96.60
2018-01-31T06:35:19.395Z,96.70
2018-01-31T06:36:19.390Z,97.08
2018-01-31T06:37:19.389Z,96.89
2018-01-31T06:38:19.382Z,96.89
2018-01-31T06:39:19.379Z,96.89
2018-01-31T06:40:19.376Z,96.89
2018-01-31T06:41:19.370Z,96.98
2018-01-31T06:42:19.366Z,96.98
2018-01-31T06:43:19.364Z,97.08
2018-01-31T06:44:19.360Z,96.98
2018-01-31T06:45:19.355Z,96.89
2018-01-31T06:46:19.351Z,96.79
2018-01-31T06:47:19.348Z,96.98
2018-01-31T06:48:19.362Z,96.98
2018-01-31T06:49:19.379Z,96.70
2018-01-31T06:50:19.337Z,96.98
2018-01-31T06:51:19.331Z,96.79
2018-01-31T06:52:19.330Z,96.89
2018-01-31T06:53:19.324Z,96.60
2018-01-31T06:54:19.320Z,96.60
2018-01-31T06:55:19.317Z,97.17
2018-01-31T06:56:19.313Z,96.98
2018-01-31T06:57:19.309Z,97.36
2018-01-31T06:58:19.304Z,97.74
2018-01-31T06:59:19.301Z,97.17
2018-01-31T07:00:19.299Z,97.74
2018-01-31T07:01:19.293Z,97.55
2018-01-31T07:02:19.291Z,97.55
2018-01-31T07:03:19.286Z,97.74
2018-01-31T07:04:19.283Z,97.46
2018-01-31T07:05:19.278Z,97.74
2018-01-31T07:06:19.276Z,97.55
2018-01-31T07:07:19.271Z,97.65
2018-01-31T07:08:19.268Z,97.74
2018-01-31T07:09:19.264Z,97.65
2018-01-31T07:10:19.259Z,97.84
2018-01-31T07:11:19.256Z,97.74
2018-01-31T07:12:19.254Z,97.74
2018-01-31T07:13:19.248Z,97.65
2018-01-31T07:14:19.245Z,97.55
2018-01-31T07:15:19.242Z,97.65
2018-01-31T07:16:19.241Z,97.27
2018-01-31T07:17:19.233Z,97.84
2018-01-31T07:18:19.231Z,97.65
2018-01-31T07:19:19.227Z,98.03
2018-01-31T07:20:19.223Z,97.74
2018-01-31T07:21:19.219Z,98.32
2018-01-31T07:22:19.214Z,98.41
2018-01-31T07:23:19.211Z,98.22
2018-01-31T07:24:19.209Z,98.79
2018-01-31T07:25:19.204Z,98.32
2018-01-31T07:26:19.200Z,98.41
2018-01-31T07:27:19.196Z,98.79
2018-01-31T07:28:19.193Z,98.88
2018-01-31T07:29:19.189Z,99.46
2018-01-31T07:30:19.186Z,98.79
2018-01-31T07:31:19.182Z,99.84
2018-01-31T07:32:19.178Z,99.74
2018-01-31T07:33:19.176Z,99.65
2018-01-31T07:34:19.171Z,99.55
2018-01-31T07:35:19.168Z,99.27
2018-01-31T07:36:19.165Z,99.08
2018-01-31T07:37:19.159Z,99.36
2018-01-31T07:38:19.158Z,99.46
2018-01-31T07:39:19.152Z,99.46
2018-01-31T07:40:19.148Z,99.65
2018-01-31T07:41:19.145Z,98.69
2018-01-31T07:42:19.143Z,98.79
2018-01-31T07:43:19.139Z,98.88
2018-01-31T07:44:19.137Z,99.27
2018-01-31T07:45:19.129Z,99.08
2018-01-31T07:46:19.125Z,99.17
2018-01-31T07:47:19.124Z,99.27
2018-01-31T07:48:19.121Z,99.27
2018-01-31T07:49:19.114Z,99.08
2018-01-31T07:50:19.111Z,98.69
2018-01-31T07:51:19.107Z,98.88
2018-01-31T07:52:19.107Z,98.50
2018-01-31T07:53:19.101Z,98.41
2018-01-31T07:54:19.097Z,98.22
2018-01-31T07:55:19.093Z,97.93
2018-01-31T07:56:19.093Z,97.65
2018-01-31T07:57:19.089Z,98.03
2018-01-31T07:58:19.083Z,97.84
2018-01-31T07:59:19.080Z,97.74
2018-01-31T08:00:19.076Z,97.74
2018-01-31T08:01:19.072Z,97.74
2018-01-31T08:02:19.068Z,97.74
2018-01-31T08:03:19.065Z,97.93
2018-01-31T08:04:19.062Z,97.74
2018-01-31T08:05:19.056Z,97.74
2018-01-31T08:06:19.053Z,97.65
2018-01-31T08:07:19.049Z,97.93
2018-01-31T08:08:19.045Z,97.36
2018-01-31T08:09:19.043Z,97.27
2018-01-31T08:10:19.038Z,97.65
2018-01-31T08:11:19.035Z,97.84
2018-01-31T08:12:19.031Z,97.84
2018-01-31T08:13:19.027Z,98.22
2018-01-31T08:14:19.025Z,98.03
2018-01-31T08:15:19.020Z,97.93
2018-01-31T08:16:19.019Z,98.13
2018-01-31T08:17:19.012Z,98.22
2018-01-31T08:18:19.009Z,98.69
2018-01-31T08:19:19.005Z,98.32
2018-01-31T08:20:19.002Z,98.50
2018-01-31T08:21:18.998Z,98.50
2018-01-31T08:22:18.994Z,98.69
2018-01-31T08:23:18.990Z,98.69
2018-01-31T08:24:18.990Z,98.41
2018-01-31T08:25:18.982Z,98.60
2018-01-31T08:26:18.984Z,98.50
2018-01-31T08:27:18.975Z,98.50
2018-01-31T08:28:18.971Z,98.50
2018-01-31T08:29:18.967Z,98.69
2018-01-31T08:30:18.963Z,97.93
2018-01-31T08:31:18.960Z,97.65
2018-01-31T08:32:18.957Z,97.93
2018-01-31T08:33:18.956Z,98.03
2018-01-31T08:34:18.949Z,97.84
2018-01-31T08:35:18.945Z,97.84
2018-01-31T08:36:18.941Z,98.03
2018-01-31T08:37:18.938Z,98.03
2018-01-31T08:38:18.935Z,97.55
2018-01-31T08:39:18.931Z,97.84
2018-01-31T08:40:18.927Z,97.84
2018-01-31T08:41:18.923Z,98.13
2018-01-31T08:42:18.920Z,97.84
2018-01-31T08:43:18.916Z,97.65
2018-01-31T08:44:18.919Z,98.03
2018-01-31T08:45:18.908Z,98.50
2018-01-31T08:46:18.904Z,98.79
2018-01-31T08:47:18.901Z,98.69
2018-01-31T08:48:18.899Z,98.41
2018-01-31T08:49:18.894Z,98.50
2018-01-31T08:50:18.889Z,98.60
2018-01-31T08:51:18.886Z,98.60
2018-01-31T08:52:18.882Z,98.50
2018-01-31T08:53:18.878Z,98.60
2018-01-31T08:54:18.875Z,98.60
2018-01-31T08:55:18.877Z,98.69
2018-01-31T08:56:18.868Z,98.50
2018-01-31T08:57:18.863Z,98.69
2018-01-31T08:58:18.860Z,98.98
2018-01-31T08:59:18.856Z,99.36
2018-01-31T09:00:18.853Z,98.88
2018-01-31T09:01:18.851Z,99.74
2018-01-31T09:02:18.848Z,99.84
2018-01-31T09:03:18.842Z,99.84
2018-01-31T09:04:18.839Z,99.74
2018-01-31T09:05:18.835Z,99.65
2018-01-31T09:06:18.831Z,99.99
2018-01-31T09:07:18.828Z,99.46
2018-01-31T09:08:18.824Z,99.65
2018-01-31T09:09:18.819Z,99.74
2018-01-31T09:10:18.817Z,99.74
2018-01-31T09:11:18.813Z,99.65
2018-01-31T09:12:18.815Z,99.65
2018-01-31T09:13:18.806Z,99.99
2018-01-31T09:14:18.802Z,99.99
2018-01-31T09:15:18.798Z,99.99
2018-01-31T09:16:18.797Z,99.99
2018-01-31T09:17:18.792Z,99.99
2018-01-31T09:18:18.788Z,99.99
2018-01-31T09:19:18.784Z,99.99
2018-01-31T09:20:18.781Z,99.99
2018-01-31T09:21:18.825Z,99.99
2018-01-31T09:22:18.774Z,99.99
2018-01-31T09:23:18.771Z,99.99
2018-01-31T09:24:18.768Z,99.74
2018-01-31T09:25:18.762Z,99.74
2018-01-31T09:26:18.758Z,99.89
2018-01-31T09:27:18.756Z,99.99
2018-01-31T09:28:18.753Z,99.99
2018-01-31T09:29:18.748Z,99.99
2018-01-31T09:30:18.745Z,99.99
2018-01-31T09:31:18.741Z,99.99
2018-01-31T09:32:18.738Z,99.99
2018-01-31T09:33:18.735Z,99.99
2018-01-31T09:34:18.731Z,99.99
2018-01-31T09:35:18.777Z,99.93
2018-01-31T09:36:18.724Z,99.99
2018-01-31T09:37:18.721Z,99.84
2018-01-31T09:38:18.717Z,99.99
2018-01-31T09:39:18.713Z,99.93
2018-01-31T09:40:18.713Z,99.65
2018-01-31T09:41:18.706Z,99.74
2018-01-31T09:42:18.703Z,99.84
2018-01-31T09:43:18.700Z,99.74
2018-01-31T09:44:18.697Z,99.93
2018-01-31T09:45:18.693Z,99.74
2018-01-31T09:46:18.688Z,99.65
2018-01-31T09:47:18.686Z,99.55
2018-01-31T09:48:18.682Z,99.99
2018-01-31T09:49:18.679Z,99.99
2018-01-31T09:50:18.676Z,99.99
2018-01-31T09:51:18.672Z,99.99
2018-01-31T09:52:18.669Z,99.99
2018-01-31T09:53:18.664Z,99.99
2018-01-31T09:54:18.661Z,99.84
2018-01-31T09:55:18.657Z,99.99
2018-01-31T09:56:18.654Z,99.99
2018-01-31T09:57:18.650Z,99.99
2018-01-31T09:58:18.648Z,99.99
2018-01-31T09:59:18.646Z,99.99
2018-01-31T10:00:18.641Z,99.84
2018-01-31T10:01:18.636Z,99.99
2018-01-31T10:02:18.633Z,99.84
2018-01-31T10:03:18.630Z,99.99
2018-01-31T10:04:18.627Z,99.99
2018-01-31T10:05:18.622Z,99.74
2018-01-31T10:06:18.624Z,99.99
2018-01-31T10:07:18.616Z,99.84
2018-01-31T10:08:18.611Z,99.93
2018-01-31T10:09:18.609Z,99.99
2018-01-31T10:10:18.605Z,99.99
2018-01-31T10:11:18.617Z,99.99
2018-01-31T10:12:18.602Z,99.99
2018-01-31T10:13:18.594Z,99.99
2018-01-31T10:14:18.589Z,99.99
2018-01-31T10:15:18.587Z,99.99
2018-01-31T10:16:18.583Z,99.99
2018-01-31T10:17:18.581Z,99.99
2018-01-31T10:18:18.574Z,99.99
2018-01-31T10:19:18.571Z,99.99
2018-01-31T10:20:18.569Z,99.99
2018-01-31T10:21:18.564Z,99.99
2018-01-31T10:22:18.560Z,99.99
2018-01-31T10:23:18.558Z,99.99
2018-01-31T10:24:18.553Z,99.99
2018-01-31T10:25:18.554Z,99.99
2018-01-31T10:26:18.547Z,99.99
2018-01-31T10:27:18.543Z,99.99
2018-01-31T10:28:18.540Z,99.99
2018-01-31T10:29:18.536Z,99.99
2018-01-31T10:30:18.532Z,99.99
2018-01-31T10:31:18.529Z,99.99
2018-01-31T10:32:18.524Z,99.99
2018-01-31T10:33:18.520Z,99.99
2018-01-31T10:34:18.517Z,99.99
2018-01-31T10:35:18.513Z,99.99
2018-01-31T10:36:18.510Z,99.99
2018-01-31T10:37:18.506Z,99.99
2018-01-31T10:38:18.504Z,99.99
2018-01-31T10:39:18.498Z,99.99
2018-01-31T10:40:18.496Z,99.99
2018-01-31T10:41:18.492Z,99.99
2018-01-31T10:42:18.488Z,99.99
2018-01-31T10:43:18.485Z,99.99
2018-01-31T10:44:18.481Z,99.99
2018-01-31T10:45:18.478Z,99.99
2018-01-31T10:46:18.473Z,99.99
2018-01-31T10:47:18.470Z,99.99
2018-01-31T10:48:18.468Z,99.99
2018-01-31T10:49:18.463Z,99.99
2018-01-31T10:50:18.459Z,99.99
2018-01-31T10:51:18.456Z,99.99
2018-01-31T10:52:18.452Z,99.99
2018-01-31T10:53:18.450Z,99.99
2018-01-31T10:57:28.820Z,99.99
2018-01-31T10:58:18.430Z,99.99
2018-01-31T10:59:18.428Z,99.99
2018-01-31T11:00:18.422Z,99.99
2018-01-31T11:01:18.418Z,99.99
2018-01-31T11:02:18.413Z,99.99
2018-01-31T11:03:18.412Z,99.99
2018-01-31T11:04:18.408Z,99.99
2018-01-31T11:05:18.404Z,99.99
2018-01-31T11:06:18.401Z,99.99
2018-01-31T11:07:18.396Z,99.99
2018-01-31T11:08:18.394Z,99.99
2018-01-31T11:09:18.388Z,99.99
2018-01-31T11:10:18.388Z,99.99
2018-01-31T11:11:18.383Z,99.99
2018-01-31T11:12:18.378Z,99.99
2018-01-31T11:13:18.374Z,99.99
2018-01-31T11:14:18.370Z,99.99
2018-01-31T11:15:18.366Z,99.99
2018-01-31T11:16:18.365Z,99.99
2018-01-31T11:17:18.360Z,99.99
2018-01-31T11:18:18.356Z,99.99
2018-01-31T11:19:18.352Z,99.99
2018-01-31T11:20:18.348Z,99.99
2018-01-31T11:21:18.344Z,99.99
2018-01-31T11:22:18.342Z,99.99
2018-01-31T11:23:18.337Z,99.99
2018-01-31T11:24:18.334Z,99.99
2018-01-31T11:25:18.329Z,99.99
2018-01-31T11:26:18.326Z,99.99
2018-01-31T11:27:18.323Z,99.99
2018-01-31T11:28:18.319Z,99.99
2018-01-31T11:29:18.316Z,99.99
2018-01-31T11:30:18.313Z,99.99
2018-01-31T11:31:18.307Z,99.99
2018-01-31T11:32:18.305Z,99.99
2018-01-31T11:33:18.300Z,99.99
2018-01-31T11:34:18.296Z,99.99
2018-01-31T11:35:18.293Z,99.99
2018-01-31T11:36:18.289Z,99.99
2018-01-31T11:37:18.285Z,99.99
2018-01-31T11:38:18.282Z,99.99
2018-01-31T11:39:18.280Z,99.99
2018-01-31T11:40:18.276Z,99.99
2018-01-31T11:41:18.273Z,99.99
2018-01-31T11:42:18.267Z,99.99
2018-01-31T11:43:18.264Z,99.99
2018-01-31T11:44:18.261Z,99.99
2018-01-31T11:45:18.256Z,99.99
2018-01-31T11:46:18.252Z,99.79
2018-01-31T11:47:18.249Z,99.99
2018-01-31T11:48:18.245Z,99.84
2018-01-31T11:49:18.240Z,99.69
2018-01-31T11:50:18.237Z,99.99
2018-01-31T11:51:18.270Z,99.99
2018-01-31T11:52:18.233Z,99.99
2018-01-31T11:53:18.226Z,99.99
2018-01-31T11:54:18.222Z,99.99
2018-01-31T11:55:18.218Z,99.99
2018-01-31T11:56:18.216Z,99.99
2018-01-31T11:57:18.212Z,99.99
2018-01-31T11:58:18.207Z,99.99
2018-01-31T11:59:18.202Z,99.99
2018-01-31T12:00:18.199Z,99.99
2018-01-31T12:01:18.195Z,99.99
2018-01-31T12:02:18.192Z,99.99
2018-01-31T12:03:18.187Z,99.99
2018-01-31T12:04:18.184Z,99.99
2018-01-31T12:05:18.177Z,99.99
2018-01-31T12:06:18.173Z,99.99
2018-01-31T12:07:18.168Z,99.99
2018-01-31T12:08:18.165Z,99.99
2018-01-31T12:09:18.183Z,99.99
2018-01-31T12:10:18.155Z,99.99
2018-01-31T12:11:18.152Z,99.99
2018-01-31T12:12:18.147Z,99.99
2018-01-31T12:13:18.142Z,99.99
2018-01-31T12:14:18.136Z,99.99
2018-01-31T12:15:18.132Z,99.99
2018-01-31T12:16:18.128Z,99.99
2018-01-31T12:17:18.124Z,99.99
2018-01-31T12:18:18.119Z,99.99
2018-01-31T12:19:18.113Z,99.99
2018-01-31T12:20:18.109Z,99.99
2018-01-31T12:21:18.104Z,99.99
2018-01-31T12:22:18.100Z,99.99
2018-01-31T12:23:18.094Z,99.99
2018-01-31T12:24:18.090Z,99.99
2018-01-31T12:25:18.085Z,99.99
2018-01-31T12:26:18.080Z,99.99
2018-01-31T12:27:18.076Z,99.99
2018-01-31T12:28:18.074Z,99.99
2018-01-31T12:29:18.066Z,99.99
2018-01-31T12:30:18.060Z,99.99
2018-01-31T12:31:18.055Z,99.99
2018-01-31T12:32:18.051Z,99.99
2018-01-31T12:33:18.046Z,99.99
2018-01-31T12:34:18.041Z,99.99
2018-01-31T12:35:18.036Z,99.99
2018-01-31T12:36:18.033Z,99.99
2018-01-31T12:37:18.027Z,99.99
2018-01-31T12:38:18.023Z,99.99
2018-01-31T12:39:18.036Z,99.99
2018-01-31T12:40:18.012Z,99.99
2018-01-31T12:41:18.006Z,99.99
2018-01-31T12:42:18.002Z,99.99
2018-01-31T12:43:17.995Z,99.99
2018-01-31T12:44:17.993Z,99.99
2018-01-31T12:45:17.991Z,99.99
2018-01-31T12:46:17.982Z,99.99
2018-01-31T12:47:17.978Z,99.99
2018-01-31T12:48:17.973Z,99.99
2018-01-31T12:49:17.967Z,99.99
2018-01-31T12:50:17.962Z,99.99
2018-01-31T12:51:17.961Z,99.99
2018-01-31T12:52:17.954Z,99.99
2018-01-31T12:53:17.948Z,99.99
2018-01-31T12:54:17.943Z,99.99
2018-01-31T12:55:17.939Z,99.99
2018-01-31T12:56:17.935Z,99.99
2018-01-31T12:57:17.929Z,99.99
2018-01-31T12:58:17.924Z,99.99
2018-01-31T12:59:17.919Z,99.99
2018-01-31T13:00:17.914Z,99.99
2018-01-31T13:01:17.909Z,99.99
2018-01-31T13:02:17.906Z,99.99
2018-01-31T13:03:17.902Z,99.99
2018-01-31T13:04:17.895Z,99.99
2018-01-31T13:05:17.889Z,99.99
2018-01-31T13:06:17.885Z,99.99
2018-01-31T13:07:17.879Z,99.99
2018-01-31T13:08:17.876Z,99.99
2018-01-31T13:09:17.871Z,99.99
2018-01-31T13:10:17.865Z,99.99
2018-01-31T13:11:17.862Z,99.99
2018-01-31T13:12:17.856Z,99.99
2018-01-31T13:13:17.857Z,99.99
2018-01-31T13:14:17.847Z,99.99
2018-01-31T13:15:17.843Z,99.99
2018-01-31T13:16:17.837Z,99.99
2018-01-31T13:17:17.831Z,99.99
2018-01-31T13:18:17.827Z,99.99
2018-01-31T13:19:17.829Z,99.99
2018-01-31T13:20:17.818Z,99.99
2018-01-31T13:21:17.814Z,99.99
2018-01-31T13:22:17.808Z,99.99
2018-01-31T13:23:17.804Z,99.99
2018-01-31T13:24:17.801Z,99.99
2018-01-31T13:25:17.794Z,99.99
2018-01-31T13:26:17.789Z,99.99
2018-01-31T13:27:17.785Z,99.99
2018-01-31T13:28:17.782Z,99.99
2018-01-31T13:29:17.776Z,99.99
2018-01-31T13:30:17.772Z,99.99
2018-01-31T13:31:17.768Z,99.99
2018-01-31T13:32:17.763Z,99.99
2018-01-31T13:33:17.772Z,99.99
2018-01-31T13:34:17.753Z,99.99
2018-01-31T13:35:17.750Z,99.99
2018-01-31T13:36:17.744Z,99.99
2018-01-31T13:37:17.739Z,99.99
2018-01-31T13:38:17.735Z,99.99
2018-01-31T13:39:17.730Z,99.99
2018-01-31T13:40:17.728Z,99.99
2018-01-31T13:41:17.720Z,99.99
2018-01-31T13:42:17.716Z,99.99
2018-01-31T13:43:17.711Z,99.99
2018-01-31T13:44:17.708Z,99.99
2018-01-31T13:45:17.702Z,99.99
2018-01-31T13:46:17.700Z,99.99
2018-01-31T13:47:17.693Z,99.99
2018-01-31T13:48:17.690Z,99.99
2018-01-31T13:49:17.683Z,99.99
2018-01-31T13:50:17.682Z,99.99
2018-01-31T13:51:17.674Z,99.99
2018-01-31T13:52:17.670Z,99.99
2018-01-31T13:53:17.665Z,99.99
2018-01-31T13:54:17.660Z,99.99
2018-01-31T13:55:17.656Z,99.99
2018-01-31T13:56:17.652Z,99.99
2018-01-31T13:57:17.646Z,99.99
2018-01-31T13:58:17.641Z,99.99
2018-01-31T13:59:17.637Z,99.99
2018-01-31T14:00:17.633Z,99.99
2018-01-31T14:01:17.627Z,99.99
2018-01-31T14:02:17.625Z,99.99
2018-01-31T14:03:17.619Z,99.99
2018-01-31T14:04:17.615Z,99.99
2018-01-31T14:05:17.609Z,99.99
2018-01-31T14:06:17.604Z,99.99
2018-01-31T14:07:17.600Z,99.99
2018-01-31T14:08:17.596Z,99.99
2018-01-31T14:09:17.590Z,99.99
2018-01-31T14:10:17.587Z,99.99
2018-01-31T14:11:17.582Z,99.99
2018-01-31T14:12:17.578Z,99.99
2018-01-31T14:13:17.572Z,99.99
2018-01-31T14:14:17.568Z,99.99
2018-01-31T14:15:17.563Z,99.99
2018-01-31T14:16:17.564Z,99.99
2018-01-31T14:17:17.558Z,99.99
2018-01-31T14:18:17.549Z,99.99
2018-01-31T14:19:17.545Z,99.99
2018-01-31T14:20:17.541Z,99.99
2018-01-31T14:21:17.535Z,99.99
2018-01-31T14:22:17.530Z,99.99
2018-01-31T14:23:17.526Z,99.99
2018-01-31T14:24:17.523Z,99.99
2018-01-31T14:25:17.517Z,99.99
2018-01-31T14:26:17.513Z,99.99
2018-01-31T14:27:17.509Z,99.99
2018-01-31T14:28:17.505Z,99.99
2018-01-31T14:29:17.499Z,99.99
2018-01-31T14:30:17.497Z,99.99
2018-01-31T14:31:17.490Z,99.99
2018-01-31T14:32:17.485Z,99.99
2018-01-31T14:33:17.480Z,99.99
2018-01-31T14:34:17.477Z,99.99
2018-01-31T14:35:17.474Z,99.99
2018-01-31T14:36:17.468Z,99.99
2018-01-31T14:37:17.462Z,99.99
2018-01-31T14:38:17.457Z,99.99
2018-01-31T14:39:17.454Z,99.99
2018-01-31T14:40:17.450Z,99.99
2018-01-31T14:41:17.443Z,99.99
2018-01-31T14:42:17.450Z,99.99
2018-01-31T14:43:17.437Z,99.99
2018-01-31T14:44:17.431Z,99.99
2018-01-31T14:45:17.426Z,99.99
2018-01-31T14:46:17.421Z,99.99